Time;durP1;ratioP1;P1;durP2;ratioP2;P2;SDS_P1;SDS_P2;PMS_P1;PMS_P2;Temp;Humidity;BMP_temperature;BMP_pressure;BME280_temperature;BME280_humidity;BME280_pressure;Samples;Min_cycle;Max_cycle;Signal;HPM_P1;HPM_P2
2022/09/27 00:01:51;;;;;;;;;;;10.40;99.90;;;;;;5021631;28;20324;-68
2022/09/27 00:04:17;;;;;;;;;;;10.30;99.90;;;;;;5022620;28;20464;-68
2022/09/27 00:06:42;;;;;;;;;;;10.20;99.90;;;;;;5037727;28;19917;-68
2022/09/27 00:09:08;;;;;;;;;;;10.20;99.90;;;;;;5034742;28;19913;-69
2022/09/27 00:11:35;;;;;;;;;;;10.20;99.90;;;;;;5031434;28;19978;-68
2022/09/27 00:14:01;;;;;;;;;;;10.10;99.90;;;;;;5029296;28;20213;-68
2022/09/27 00:16:28;;;;;;;;;;;10.10;99.90;;;;;;5008563;28;20402;-68
2022/09/27 00:18:59;;;;;;;;;;;10.10;99.90;;;;;;5037935;28;19913;-68
2022/09/27 00:21:24;;;;;;;;;;;10.10;99.90;;;;;;5039975;28;19917;-68
2022/09/27 00:23:50;;;;;;;;;;;10.10;99.90;;;;;;5020524;28;20295;-68
2022/09/27 00:26:15;;;;;;;;;;;10.10;99.90;;;;;;5038416;28;19928;-67
2022/09/27 00:28:41;;;;;;;;;;;10.10;99.90;;;;;;5038472;28;19990;-68
2022/09/27 00:31:15;;;;;;;;;;;10.10;99.90;;;;;;5038558;28;20350;-68
2022/09/27 00:33:41;;;;;;;;;;;10.10;99.90;;;;;;5037371;28;19924;-68
2022/09/27 00:36:06;;;;;;;;;;;10.20;99.90;;;;;;5033619;28;19923;-68
2022/09/27 00:38:32;;;;;;;;;;;10.20;99.90;;;;;;5038506;28;20315;-68
2022/09/27 00:40:57;;;;;;;;;;;10.10;99.90;;;;;;5038159;28;19925;-68
2022/09/27 00:43:23;;;;;;;;;;;10.10;99.90;;;;;;5037182;28;20015;-68
2022/09/27 00:45:54;;;;;;;;;;;10.00;99.90;;;;;;5046211;28;19917;-68
2022/09/27 00:48:22;;;;;;;;;;;10.00;99.90;;;;;;5059505;28;19916;-68
2022/09/27 00:50:49;;;;;;;;;;;9.90;99.90;;;;;;5037269;28;19917;-68
2022/09/27 00:53:20;;;;;;;;;;;9.90;99.90;;;;;;5038429;28;19923;-68
2022/09/27 00:55:54;;;;;;;;;;;9.80;99.90;;;;;;5020190;28;20091;-68
2022/09/27 00:58:23;;;;;;;;;;;9.70;99.90;;;;;;5039240;28;20351;-68
2022/09/27 01:00:50;;;;;;;;;;;9.60;99.90;;;;;;5037952;28;19931;-68
2022/09/27 01:03:21;;;;;;;;;;;9.50;99.90;;;;;;5019678;28;19921;-68
2022/09/27 01:05:47;;;;;;;;;;;9.40;99.90;;;;;;5035969;28;20310;-68
2022/09/27 01:08:12;;;;;;;;;;;9.40;99.90;;;;;;5036064;28;19947;-67
2022/09/27 01:10:44;;;;;;;;;;;9.40;99.90;;;;;;5038197;28;19912;-68
2022/09/27 01:13:16;;;;;;;;;;;9.30;99.90;;;;;;5038983;28;20193;-68
2022/09/27 01:15:45;;;;;;;;;;;9.40;99.90;;;;;;5036801;28;19960;-68
2022/09/27 01:18:31;;;;;;;;;;;9.30;99.90;;;;;;5038663;28;20007;-67
2022/09/27 01:21:00;;;;;;;;;;;9.20;99.90;;;;;;5037603;28;20325;-68
2022/09/27 01:23:34;;;;;;;;;;;9.30;99.90;;;;;;5044926;28;20117;-67
2022/09/27 01:26:00;;;;;;;;;;;9.20;99.90;;;;;;5038253;28;19921;-68
2022/09/27 01:28:26;;;;;;;;;;;9.20;99.90;;;;;;5041613;28;20181;-68
2022/09/27 01:31:10;;;;;;;;;;;9.30;99.90;;;;;;5040732;28;20192;-68
2022/09/27 01:33:48;;;;;;;;;;;9.20;99.90;;;;;;5041722;28;20281;-68
2022/09/27 01:36:22;;;;;;;;;;;9.30;99.90;;;;;;5041812;28;19916;-67
2022/09/27 01:38:55;;;;;;;;;;;9.30;99.90;;;;;;5040104;28;19932;-68
2022/09/27 01:41:26;;;;;;;;;;;9.30;99.90;;;;;;5041202;28;19921;-68
2022/09/27 01:43:57;;;;;;;;;;;9.30;99.90;;;;;;5039791;28;19917;-68
2022/09/27 01:46:26;;;;;;;;;;;9.20;99.90;;;;;;5040432;28;19916;-68
2022/09/27 01:48:53;;;;;;;;;;;9.20;99.90;;;;;;5039769;28;19917;-67
2022/09/27 01:51:22;;;;;;;;;;;9.20;99.90;;;;;;5027337;28;20202;-67
2022/09/27 01:53:55;;;;;;;;;;;9.10;99.90;;;;;;5042935;28;19917;-68
2022/09/27 01:56:29;;;;;;;;;;;9.00;99.90;;;;;;5044450;28;20202;-67
2022/09/27 01:59:15;;;;;;;;;;;9.00;99.90;;;;;;5043665;28;20303;-67
2022/09/27 02:01:43;;;;;;;;;;;8.90;99.90;;;;;;5041488;28;20326;-68
2022/09/27 02:04:10;;;;;;;;;;;8.80;99.90;;;;;;5024023;28;19917;-68
2022/09/27 02:06:38;;;;;;;;;;;8.80;99.90;;;;;;5038182;28;19955;-67
2022/09/27 02:09:18;;;;;;;;;;;8.80;99.90;;;;;;5047207;28;20380;-68
2022/09/27 02:11:49;;;;;;;;;;;8.70;99.90;;;;;;5043265;28;20066;-67
2022/09/27 02:14:17;;;;;;;;;;;8.70;99.90;;;;;;5025182;28;20359;-67
2022/09/27 02:16:49;;;;;;;;;;;8.60;99.90;;;;;;5042036;28;19933;-67
2022/09/27 02:19:33;;;;;;;;;;;8.50;99.90;;;;;;5042429;28;20152;-67
2022/09/27 02:22:05;;;;;;;;;;;8.50;99.90;;;;;;5043246;28;19979;-68
2022/09/27 02:24:44;;;;;;;;;;;8.50;99.90;;;;;;5018090;28;19932;-67
2022/09/27 02:27:15;;;;;;;;;;;8.50;99.90;;;;;;5035414;28;20470;-67
2022/09/27 02:29:49;;;;;;;;;;;8.50;99.90;;;;;;5043408;28;20342;-67
2022/09/27 02:32:15;;;;;;;;;;;8.50;99.90;;;;;;5041284;28;19989;-67
2022/09/27 02:34:41;;;;;;;;;;;8.50;99.90;;;;;;5041651;28;20368;-67
2022/09/27 02:37:07;;;;;;;;;;;8.50;99.90;;;;;;5042735;28;20232;-67
2022/09/27 02:39:32;;;;;;;;;;;8.50;99.90;;;;;;5042572;28;20019;-66
2022/09/27 02:41:58;;;;;;;;;;;8.40;99.90;;;;;;5041687;28;19946;-70
2022/09/27 02:44:25;;;;;;;;;;;8.40;99.90;;;;;;5042621;28;19917;-66
2022/09/27 02:47:03;;;;;;;;;;;8.30;99.90;;;;;;5043316;28;19923;-69
2022/09/27 02:50:04;;;;;;;;;;;8.30;99.90;;;;;;5040428;28;19917;-69
2022/09/27 02:52:36;;;;;;;;;;;8.20;99.90;;;;;;4942167;29;20029;-69
2022/09/27 02:55:19;;;;;;;;;;;8.10;99.90;;;;;;5009504;28;19917;-69
2022/09/27 02:57:45;;;;;;;;;;;8.10;99.90;;;;;;5042941;28;19989;-69
2022/09/27 03:00:14;;;;;;;;;;;8.10;99.90;;;;;;5042364;28;19916;-69
2022/09/27 03:02:58;;;;;;;;;;;8.00;99.90;;;;;;5026376;28;19963;-69
2022/09/27 03:05:25;;;;;;;;;;;8.00;99.90;;;;;;5041434;28;20043;-69
2022/09/27 03:07:50;;;;;;;;;;;7.90;99.90;;;;;;5042688;28;20046;-69
2022/09/27 03:10:27;;;;;;;;;;;7.90;99.90;;;;;;5042728;28;19917;-69
2022/09/27 03:12:53;;;;;;;;;;;7.90;99.90;;;;;;5038608;28;20329;-69
2022/09/27 03:15:19;;;;;;;;;;;7.90;99.90;;;;;;5042399;28;19974;-69
2022/09/27 03:17:44;;;;;;;;;;;8.00;99.90;;;;;;5042164;28;19924;-69
2022/09/27 03:20:10;;;;;;;;;;;8.10;99.90;;;;;;5042807;28;19921;-69
2022/09/27 03:22:37;;;;;;;;;;;8.10;99.90;;;;;;5041903;28;19935;-69
2022/09/27 03:25:03;;;;;;;;;;;8.20;99.90;;;;;;5039336;28;19990;-68
2022/09/27 03:27:28;;;;;;;;;;;8.30;99.90;;;;;;5042303;28;20417;-69
2022/09/27 03:29:54;;;;;;;;;;;8.40;99.90;;;;;;5036426;28;20129;-69
2022/09/27 03:32:19;;;;;;;;;;;8.40;99.90;;;;;;5033229;28;20027;-70
2022/09/27 03:34:45;;;;;;;;;;;8.40;99.90;;;;;;5022969;28;20368;-69
2022/09/27 03:37:10;;;;;;;;;;;8.40;99.90;;;;;;5037001;28;20340;-68
2022/09/27 03:39:36;;;;;;;;;;;8.50;99.90;;;;;;5044368;28;19975;-69
2022/09/27 03:42:01;;;;;;;;;;;8.50;99.90;;;;;;5041349;28;20434;-69
2022/09/27 03:44:27;;;;;;;;;;;8.50;99.90;;;;;;5041373;28;20753;-69
2022/09/27 03:46:52;;;;;;;;;;;8.60;99.90;;;;;;5041409;28;19981;-69
2022/09/27 03:49:18;;;;;;;;;;;8.60;99.90;;;;;;5042369;28;19924;-68
2022/09/27 03:51:44;;;;;;;;;;;8.70;99.90;;;;;;5022821;28;19913;-69
2022/09/27 03:54:09;;;;;;;;;;;8.80;99.90;;;;;;5022916;28;19913;-69
2022/09/27 03:56:35;;;;;;;;;;;8.80;99.90;;;;;;5023048;28;19925;-68
2022/09/27 03:59:00;;;;;;;;;;;8.90;99.90;;;;;;5036581;28;19916;-69
2022/09/27 04:01:26;;;;;;;;;;;8.90;99.90;;;;;;5040487;28;20069;-69
2022/09/27 04:03:52;;;;;;;;;;;9.00;99.90;;;;;;5026894;28;19967;-69
2022/09/27 04:06:17;;;;;;;;;;;9.00;99.90;;;;;;5041843;28;19921;-69
2022/09/27 04:08:43;;;;;;;;;;;9.00;99.90;;;;;;5041987;28;19923;-69
2022/09/27 04:11:09;;;;;;;;;;;9.00;99.90;;;;;;5042622;28;20385;-69
2022/09/27 04:13:35;;;;;;;;;;;9.00;99.90;;;;;;5034138;28;20362;-69
2022/09/27 04:16:01;;;;;;;;;;;9.00;99.90;;;;;;5039402;28;19917;-69
2022/09/27 04:18:27;;;;;;;;;;;9.00;99.90;;;;;;5022091;28;19920;-69
2022/09/27 04:20:53;;;;;;;;;;;9.00;99.90;;;;;;5021864;28;19925;-69
2022/09/27 04:23:19;;;;;;;;;;;9.00;99.90;;;;;;5022439;28;20411;-69
2022/09/27 04:25:44;;;;;;;;;;;9.00;99.90;;;;;;5021882;28;19961;-69
2022/09/27 04:28:10;;;;;;;;;;;9.10;99.90;;;;;;5038670;28;20398;-69
2022/09/27 04:30:35;;;;;;;;;;;9.00;99.90;;;;;;5025700;28;19916;-69
2022/09/27 04:33:01;;;;;;;;;;;9.00;99.90;;;;;;5034011;28;19916;-67
2022/09/27 04:38:10;;;;;;;;;;;9.10;99.90;;;;;;5047477;28;19923;-68
2022/09/27 04:40:37;;;;;;;;;;;9.10;99.90;;;;;;5040307;28;20031;-67
2022/09/27 04:43:03;;;;;;;;;;;9.20;99.90;;;;;;5036105;28;20363;-67
2022/09/27 04:45:29;;;;;;;;;;;9.20;99.90;;;;;;5037292;28;20011;-68
2022/09/27 04:47:54;;;;;;;;;;;9.20;99.90;;;;;;5039682;28;20668;-67
2022/09/27 04:50:20;;;;;;;;;;;9.20;99.90;;;;;;5038240;28;20441;-67
2022/09/27 04:52:49;;;;;;;;;;;9.20;99.90;;;;;;5023903;28;19917;-68
2022/09/27 04:55:14;;;;;;;;;;;9.20;99.90;;;;;;5038451;28;19947;-67
2022/09/27 04:57:40;;;;;;;;;;;9.20;99.90;;;;;;5037427;28;20418;-68
2022/09/27 05:00:06;;;;;;;;;;;9.20;99.90;;;;;;5038133;28;20434;-68
2022/09/27 05:02:31;;;;;;;;;;;9.20;99.90;;;;;;5036396;28;20016;-68
2022/09/27 05:04:58;;;;;;;;;;;9.20;99.90;;;;;;5036274;28;20019;-68
2022/09/27 05:07:26;;;;;;;;;;;9.20;99.90;;;;;;5027545;28;19924;-68
2022/09/27 05:09:51;;;;;;;;;;;9.20;99.90;;;;;;5038369;28;19920;-68
2022/09/27 05:12:17;;;;;;;;;;;9.20;99.90;;;;;;5037673;28;20291;-67
2022/09/27 05:14:43;;;;;;;;;;;9.20;99.90;;;;;;5017731;28;19939;-68
2022/09/27 05:17:08;;;;;;;;;;;9.20;99.90;;;;;;5037074;28;19924;-67
2022/09/27 05:19:34;;;;;;;;;;;9.20;99.90;;;;;;5038740;28;19916;-68
2022/09/27 05:22:00;;;;;;;;;;;9.20;99.90;;;;;;5038953;28;19963;-68
2022/09/27 05:24:26;;;;;;;;;;;9.20;99.90;;;;;;5038937;28;20003;-67
2022/09/27 05:26:52;;;;;;;;;;;9.20;99.90;;;;;;5037418;28;19923;-68
2022/09/27 05:29:18;;;;;;;;;;;9.20;99.90;;;;;;5037646;28;19938;-67
2022/09/27 05:31:44;;;;;;;;;;;9.20;99.90;;;;;;5038913;28;19917;-67
2022/09/27 05:34:10;;;;;;;;;;;9.20;99.90;;;;;;5038081;28;19917;-68
2022/09/27 05:36:36;;;;;;;;;;;9.30;99.90;;;;;;5036465;28;19921;-68
2022/09/27 05:39:02;;;;;;;;;;;9.30;99.90;;;;;;5038545;28;19942;-68
2022/09/27 05:41:28;;;;;;;;;;;9.20;99.90;;;;;;5034238;28;20051;-67
2022/09/27 05:43:54;;;;;;;;;;;9.20;99.90;;;;;;5037848;28;20008;-68
2022/09/27 05:46:20;;;;;;;;;;;9.20;99.90;;;;;;5037553;28;20303;-68
2022/09/27 05:48:45;;;;;;;;;;;9.20;99.90;;;;;;5038373;28;19913;-68
2022/09/27 05:51:11;;;;;;;;;;;9.20;99.90;;;;;;5036532;28;19912;-67
2022/09/27 05:53:36;;;;;;;;;;;9.20;99.90;;;;;;5038896;28;19927;-67
2022/09/27 05:56:05;;;;;;;;;;;9.20;99.90;;;;;;5041218;28;19971;-67
2022/09/27 05:58:30;;;;;;;;;;;9.30;99.90;;;;;;5037639;28;19967;-67
2022/09/27 06:00:56;;;;;;;;;;;9.30;99.90;;;;;;5036098;28;20395;-67
2022/09/27 06:03:21;;;;;;;;;;;9.30;99.90;;;;;;5037626;28;19974;-67
2022/09/27 06:05:47;;;;;;;;;;;9.30;99.90;;;;;;5035315;28;19972;-68
2022/09/27 06:08:13;;;;;;;;;;;9.30;99.90;;;;;;5038911;28;20012;-68
2022/09/27 06:10:39;;;;;;;;;;;9.30;99.90;;;;;;5042799;28;20446;-68
2022/09/27 06:13:14;;;;;;;;;;;9.40;99.90;;;;;;5050261;28;20426;-67
2022/09/27 06:15:41;;;;;;;;;;;9.40;99.90;;;;;;5027433;28;19921;-67
2022/09/27 06:18:11;;;;;;;;;;;9.40;99.90;;;;;;5030111;28;19940;-68
2022/09/27 06:20:38;;;;;;;;;;;9.40;99.90;;;;;;5034884;28;20420;-67
2022/09/27 06:23:04;;;;;;;;;;;9.50;99.90;;;;;;5037033;28;19972;-68
2022/09/27 06:25:30;;;;;;;;;;;9.50;99.90;;;;;;5033555;28;20019;-67
2022/09/27 06:27:55;;;;;;;;;;;9.50;99.90;;;;;;5031335;28;19913;-67
2022/09/27 06:30:21;;;;;;;;;;;9.60;99.90;;;;;;5037492;28;21643;-68
2022/09/27 06:32:46;;;;;;;;;;;9.70;99.90;;;;;;5035283;28;19939;-68
2022/09/27 06:35:12;;;;;;;;;;;9.70;99.90;;;;;;5033661;28;19909;-68
2022/09/27 06:37:37;;;;;;;;;;;9.70;99.90;;;;;;5030481;28;20060;-68
2022/09/27 06:40:03;;;;;;;;;;;9.80;99.90;;;;;;5022785;28;20247;-68
2022/09/27 06:42:29;;;;;;;;;;;9.90;99.90;;;;;;5040055;28;19917;-68
2022/09/27 06:44:54;;;;;;;;;;;9.90;99.90;;;;;;5020209;28;19920;-68
2022/09/27 06:47:20;;;;;;;;;;;10.00;99.90;;;;;;5040484;28;20382;-68
2022/09/27 06:49:45;;;;;;;;;;;10.10;99.90;;;;;;5038029;28;19917;-68
2022/09/27 06:52:11;;;;;;;;;;;10.20;99.90;;;;;;5031444;28;20429;-68
2022/09/27 06:54:36;;;;;;;;;;;10.20;99.90;;;;;;5034891;28;20442;-68
2022/09/27 06:57:02;;;;;;;;;;;10.30;99.90;;;;;;5041635;28;19913;-69
2022/09/27 07:02:12;;;;;;;;;;;10.40;99.90;;;;;;5029228;28;20539;-68
2022/09/27 07:04:38;;;;;;;;;;;10.60;99.90;;;;;;5037291;28;19932;-68
2022/09/27 07:07:03;;;;;;;;;;;10.60;99.90;;;;;;5027831;28;20339;-68
2022/09/27 07:09:29;;;;;;;;;;;10.50;99.90;;;;;;5028316;28;20710;-68
2022/09/27 07:11:54;;;;;;;;;;;10.50;99.90;;;;;;5020119;28;19923;-67
2022/09/27 07:14:20;;;;;;;;;;;10.50;99.90;;;;;;5028670;28;19921;-68
2022/09/27 07:16:46;;;;;;;;;;;10.30;99.90;;;;;;5032962;28;20292;-68
2022/09/27 07:19:13;;;;;;;;;;;10.20;99.90;;;;;;5042135;28;19973;-68
2022/09/27 07:21:38;;;;;;;;;;;10.10;99.90;;;;;;5033795;28;19925;-68
2022/09/27 07:24:04;;;;;;;;;;;10.00;99.90;;;;;;5036114;28;19941;-68
2022/09/27 07:26:29;;;;;;;;;;;10.00;99.90;;;;;;5036393;28;19920;-68
2022/09/27 07:28:55;;;;;;;;;;;9.90;99.90;;;;;;5037561;28;20282;-68
2022/09/27 07:31:21;;;;;;;;;;;10.00;99.90;;;;;;5030187;28;19917;-68
2022/09/27 07:33:46;;;;;;;;;;;10.00;99.90;;;;;;5031776;28;20419;-71
2022/09/27 07:36:12;;;;;;;;;;;10.10;99.90;;;;;;5034327;28;20439;-68
2022/09/27 07:38:38;;;;;;;;;;;10.30;99.90;;;;;;5008685;28;19916;-68
2022/09/27 07:41:07;;;;;;;;;;;10.70;99.90;;;;;;5032475;28;19928;-68
2022/09/27 07:43:33;;;;;;;;;;;11.00;99.90;;;;;;5037827;28;19921;-68
2022/09/27 07:45:58;;;;;;;;;;;11.50;99.90;;;;;;5031449;28;19962;-68
2022/09/27 07:48:24;;;;;;;;;;;11.80;99.90;;;;;;5026355;28;20229;-68
2022/09/27 07:50:51;;;;;;;;;;;12.00;99.90;;;;;;5031944;28;20311;-68
2022/09/27 07:53:17;;;;;;;;;;;12.40;99.90;;;;;;5032402;28;19920;-68
2022/09/27 07:55:42;;;;;;;;;;;12.80;99.90;;;;;;5037293;28;19968;-68
2022/09/27 07:58:09;;;;;;;;;;;13.10;99.90;;;;;;5037110;28;19929;-68
2022/09/27 08:00:36;;;;;;;;;;;13.20;99.90;;;;;;5035521;28;19924;-68
2022/09/27 08:03:09;;;;;;;;;;;13.40;99.90;;;;;;5036807;28;19939;-68
2022/09/27 08:05:35;;;;;;;;;;;13.50;99.90;;;;;;5037010;28;20399;-68
2022/09/27 08:08:01;;;;;;;;;;;13.70;99.90;;;;;;5034308;28;19916;-68
2022/09/27 08:10:29;;;;;;;;;;;13.90;99.90;;;;;;5034475;28;20364;-69
2022/09/27 08:12:55;;;;;;;;;;;14.10;99.90;;;;;;5033712;28;20459;-69
2022/09/27 08:15:20;;;;;;;;;;;14.30;99.90;;;;;;5030794;28;20364;-68
2022/09/27 08:17:46;;;;;;;;;;;14.50;99.90;;;;;;5036185;28;20444;-68
2022/09/27 08:20:13;;;;;;;;;;;14.50;99.90;;;;;;4684973;28;10000333;-69
2022/09/27 08:22:39;;;;;;;;;;;14.50;99.90;;;;;;5030199;28;19917;-68
2022/09/27 08:25:05;;;;;;;;;;;14.40;99.90;;;;;;5023291;28;19940;-69
2022/09/27 08:27:30;;;;;;;;;;;14.40;99.90;;;;;;5029322;28;19921;-68
2022/09/27 08:29:56;;;;;;;;;;;14.40;99.90;;;;;;5022794;28;20044;-68
2022/09/27 08:32:22;;;;;;;;;;;14.60;99.90;;;;;;5014764;28;20028;-69
2022/09/27 08:34:48;;;;;;;;;;;14.60;99.90;;;;;;5023489;28;20442;-69
2022/09/27 08:37:13;;;;;;;;;;;14.70;99.90;;;;;;5021293;28;19921;-68
2022/09/27 08:39:39;;;;;;;;;;;16.00;99.90;;;;;;5023180;28;19924;-69
2022/09/27 08:42:10;;;;;;;;;;;18.00;99.90;;;;;;5026387;28;19923;-68
2022/09/27 08:44:55;;;;;;;;;;;20.60;94.00;;;;;;5029272;28;19924;-69
2022/09/27 08:47:28;;;;;;;;;;;23.60;81.40;;;;;;5038295;28;19927;-69
2022/09/27 08:49:57;;;;;;;;;;;25.60;70.70;;;;;;5039117;28;20373;-70
2022/09/27 08:52:26;;;;;;;;;;;26.10;63.00;;;;;;5040891;28;20455;-68
2022/09/27 08:54:52;;;;;;;;;;;26.00;61.00;;;;;;5038758;28;20395;-70
2022/09/27 08:57:18;;;;;;;;;;;27.00;57.80;;;;;;5032825;28;20042;-70
2022/09/27 08:59:50;;;;;;;;;;;26.70;56.80;;;;;;5043868;28;20015;-69
2022/09/27 09:02:20;;;;;;;;;;;25.30;56.00;;;;;;5036959;28;19936;-70
2022/09/27 09:04:49;;;;;;;;;;;26.40;54.80;;;;;;5037574;28;19970;-69
2022/09/27 09:07:20;;;;;;;;;;;26.50;52.40;;;;;;5034860;28;19917;-69
2022/09/27 09:10:04;;;;;;;;;;;25.00;54.10;;;;;;5041322;28;19927;-70
2022/09/27 09:12:52;;;;;;;;;;;23.80;56.90;;;;;;5037034;28;19912;-69
2022/09/27 09:15:29;;;;;;;;;;;21.80;60.70;;;;;;5025091;28;20015;-69
2022/09/27 09:18:08;;;;;;;;;;;21.80;63.80;;;;;;5029689;28;20304;-69
2022/09/27 09:20:36;;;;;;;;;;;21.80;66.00;;;;;;5035735;28;19978;-68
2022/09/27 09:23:27;;;;;;;;;;;22.70;64.70;;;;;;5036434;28;20071;-69
2022/09/27 09:26:04;;;;;;;;;;;22.50;67.50;;;;;;5012348;28;19919;-68
2022/09/27 09:28:50;;;;;;;;;;;23.20;69.80;;;;;;5016079;28;19987;-69
2022/09/27 09:31:19;;;;;;;;;;;24.70;63.80;;;;;;4984282;28;20513;-69
2022/09/27 09:33:49;;;;;;;;;;;23.80;61.10;;;;;;5032312;28;20003;-69
2022/09/27 09:36:17;;;;;;;;;;;22.10;64.50;;;;;;5035873;28;19996;-69
2022/09/27 09:38:50;;;;;;;;;;;20.50;70.00;;;;;;5034661;28;19941;-69
2022/09/27 09:41:19;;;;;;;;;;;18.80;75.90;;;;;;5034899;28;19929;-69
2022/09/27 09:43:45;;;;;;;;;;;17.80;90.20;;;;;;5040394;28;20004;-68
2022/09/27 09:46:16;;;;;;;;;;;16.70;95.50;;;;;;5044887;28;20053;-68
2022/09/27 09:48:48;;;;;;;;;;;16.00;99.90;;;;;;5037025;28;20072;-68
2022/09/27 09:51:17;;;;;;;;;;;15.80;99.90;;;;;;5031671;28;20148;-69
2022/09/27 09:53:46;;;;;;;;;;;17.20;99.90;;;;;;5032894;28;20666;-68
2022/09/27 09:56:31;;;;;;;;;;;19.40;98.40;;;;;;5053712;28;19916;-70
2022/09/27 09:59:03;;;;;;;;;;;21.60;86.10;;;;;;5021159;28;19963;-68
2022/09/27 10:01:37;;;;;;;;;;;22.70;72.70;;;;;;5032168;28;20002;-69
2022/09/27 10:04:02;;;;;;;;;;;22.40;75.00;;;;;;5041523;28;19912;-69
2022/09/27 10:06:29;;;;;;;;;;;22.40;73.00;;;;;;5040845;28;19932;-69
2022/09/27 10:08:54;;;;;;;;;;;22.20;74.10;;;;;;5022322;28;20744;-69
2022/09/27 10:11:23;;;;;;;;;;;21.70;75.50;;;;;;5040899;28;19924;-69
2022/09/27 10:13:48;;;;;;;;;;;21.20;76.90;;;;;;5041779;28;20433;-69
2022/09/27 10:16:15;;;;;;;;;;;20.70;82.30;;;;;;5041188;28;19932;-68
2022/09/27 10:18:41;;;;;;;;;;;19.60;81.00;;;;;;5037301;28;19913;-69
2022/09/27 10:21:21;;;;;;;;;;;18.70;89.00;;;;;;5041289;28;19987;-69
2022/09/27 10:24:07;;;;;;;;;;;18.40;93.10;;;;;;5040755;28;19927;-68
2022/09/27 10:26:34;;;;;;;;;;;18.90;95.60;;;;;;5023757;28;20190;-69
2022/09/27 10:29:17;;;;;;;;;;;20.80;94.30;;;;;;5039906;28;19917;-69
2022/09/27 10:31:47;;;;;;;;;;;21.20;83.50;;;;;;5033756;28;20265;-69
2022/09/27 10:34:21;;;;;;;;;;;20.10;88.50;;;;;;4668246;28;10000373;-69
2022/09/27 10:37:00;;;;;;;;;;;19.40;91.00;;;;;;5036212;28;20477;-70
2022/09/27 10:39:27;;;;;;;;;;;19.00;91.50;;;;;;5039500;28;19928;-69
2022/09/27 10:41:52;;;;;;;;;;;18.80;91.80;;;;;;5036857;28;20383;-68
2022/09/27 10:44:25;;;;;;;;;;;18.30;92.80;;;;;;5046864;28;19967;-68
2022/09/27 10:46:52;;;;;;;;;;;17.40;96.20;;;;;;5041709;28;20782;-69
2022/09/27 10:49:28;;;;;;;;;;;16.70;99.90;;;;;;5040409;28;19917;-68
2022/09/27 10:51:56;;;;;;;;;;;16.00;99.90;;;;;;5019977;28;20488;-68
2022/09/27 10:54:23;;;;;;;;;;;15.50;99.90;;;;;;5021085;28;20227;-69
2022/09/27 10:57:18;;;;;;;;;;;15.00;99.90;;;;;;5012914;28;19917;-68
2022/09/27 10:59:48;;;;;;;;;;;14.70;99.90;;;;;;5018814;28;19966;-68
2022/09/27 11:02:26;;;;;;;;;;;14.20;99.90;;;;;;5042795;28;20321;-68
2022/09/27 11:05:06;;;;;;;;;;;13.90;99.90;;;;;;5034424;28;19921;-68
2022/09/27 11:07:34;;;;;;;;;;;13.60;99.90;;;;;;5033221;28;20012;-68
2022/09/27 11:10:01;;;;;;;;;;;13.70;99.90;;;;;;5039717;28;20124;-68
2022/09/27 11:12:29;;;;;;;;;;;14.00;99.90;;;;;;5039984;28;20335;-68
2022/09/27 11:15:02;;;;;;;;;;;14.50;99.90;;;;;;5038371;28;20268;-68
2022/09/27 11:17:28;;;;;;;;;;;16.00;99.90;;;;;;5038587;28;19970;-69
2022/09/27 11:20:12;;;;;;;;;;;17.80;99.90;;;;;;5040486;28;19964;-68
2022/09/27 11:22:47;;;;;;;;;;;18.90;99.90;;;;;;5018002;28;20400;-69
2022/09/27 11:25:27;;;;;;;;;;;19.50;99.90;;;;;;5018421;28;20069;-69
2022/09/27 11:28:06;;;;;;;;;;;19.50;99.90;;;;;;5017778;28;20322;-69
2022/09/27 11:30:37;;;;;;;;;;;19.40;99.90;;;;;;5019159;28;19920;-69
2022/09/27 11:33:15;;;;;;;;;;;19.20;99.90;;;;;;5027037;28;19917;-69
2022/09/27 11:35:52;;;;;;;;;;;18.80;99.90;;;;;;5021362;28;19927;-69
2022/09/27 11:38:17;;;;;;;;;;;18.70;99.90;;;;;;5039993;28;20315;-68
2022/09/27 11:40:43;;;;;;;;;;;18.40;99.90;;;;;;5040136;28;19992;-68
2022/09/27 11:43:09;;;;;;;;;;;17.90;99.90;;;;;;5039964;28;19956;-68
2022/09/27 11:45:54;;;;;;;;;;;17.90;99.90;;;;;;5039044;28;19948;-69
2022/09/27 11:48:36;;;;;;;;;;;18.10;99.90;;;;;;5037472;28;20015;-68
2022/09/27 11:51:21;;;;;;;;;;;18.20;99.90;;;;;;5038497;28;19916;-68
2022/09/27 11:53:52;;;;;;;;;;;18.30;99.90;;;;;;5044205;28;20003;-68
2022/09/27 11:56:31;;;;;;;;;;;18.20;99.90;;;;;;5041185;28;19962;-68
2022/09/27 11:59:15;;;;;;;;;;;18.60;99.90;;;;;;5042151;28;19916;-68
2022/09/27 12:01:59;;;;;;;;;;;19.30;99.90;;;;;;5032098;28;19936;-69
2022/09/27 12:04:31;;;;;;;;;;;19.80;99.90;;;;;;5043717;28;20368;-69
2022/09/27 12:07:02;;;;;;;;;;;20.30;99.90;;;;;;5038769;28;19974;-68
2022/09/27 12:09:34;;;;;;;;;;;20.50;99.90;;;;;;5039465;28;20044;-68
2022/09/27 12:12:03;;;;;;;;;;;20.30;99.90;;;;;;5035389;28;20163;-67
2022/09/27 12:14:34;;;;;;;;;;;20.20;99.90;;;;;;5033907;28;19917;-67
2022/09/27 12:17:01;;;;;;;;;;;20.00;99.90;;;;;;5035623;28;19917;-67
2022/09/27 12:19:29;;;;;;;;;;;19.90;99.90;;;;;;5036635;28;19970;-67
2022/09/27 12:21:56;;;;;;;;;;;19.80;99.50;;;;;;5038678;28;19921;-67
2022/09/27 12:24:22;;;;;;;;;;;19.60;99.60;;;;;;5032511;28;20104;-67
2022/09/27 12:26:56;;;;;;;;;;;19.90;99.90;;;;;;5036862;28;20395;-67
2022/09/27 12:29:21;;;;;;;;;;;20.10;98.20;;;;;;5035505;28;20012;-67
2022/09/27 12:32:06;;;;;;;;;;;20.10;99.90;;;;;;5042896;28;19924;-67
2022/09/27 12:34:50;;;;;;;;;;;20.10;99.90;;;;;;5032365;28;19928;-67
2022/09/27 12:37:20;;;;;;;;;;;20.20;99.90;;;;;;5035424;28;20356;-67
2022/09/27 12:39:46;;;;;;;;;;;20.00;99.30;;;;;;5024859;28;20063;-67
2022/09/27 12:42:24;;;;;;;;;;;20.00;99.50;;;;;;5036718;28;20331;-67
2022/09/27 12:44:50;;;;;;;;;;;19.90;99.90;;;;;;5032606;28;20482;-67
2022/09/27 12:47:15;;;;;;;;;;;19.40;99.90;;;;;;5039367;28;20002;-67
2022/09/27 12:49:40;;;;;;;;;;;18.80;99.90;;;;;;5037444;28;20265;-67
2022/09/27 12:52:10;;;;;;;;;;;18.40;99.90;;;;;;5037804;28;20447;-67
2022/09/27 12:54:48;;;;;;;;;;;18.00;99.90;;;;;;5037979;28;20288;-67
2022/09/27 12:57:32;;;;;;;;;;;17.70;99.90;;;;;;5037206;28;20117;-67
2022/09/27 12:59:58;;;;;;;;;;;17.80;99.90;;;;;;5028333;28;20495;-66
2022/09/27 13:02:25;;;;;;;;;;;18.00;99.90;;;;;;5036959;28;20166;-67
2022/09/27 13:05:09;;;;;;;;;;;18.10;99.90;;;;;;5037790;28;20378;-67
2022/09/27 13:07:53;;;;;;;;;;;18.10;99.90;;;;;;5038068;28;19921;-69
2022/09/27 13:10:25;;;;;;;;;;;17.60;99.90;;;;;;5037304;28;20026;-67
2022/09/27 13:12:53;;;;;;;;;;;17.10;99.90;;;;;;5036759;28;20402;-67
2022/09/27 13:15:18;;;;;;;;;;;16.70;99.90;;;;;;5014394;28;19921;-67
2022/09/27 13:17:44;;;;;;;;;;;16.50;99.90;;;;;;5034056;28;19917;-67
2022/09/27 13:20:31;;;;;;;;;;;16.50;99.90;;;;;;5038575;28;19931;-67
2022/09/27 13:22:57;;;;;;;;;;;16.40;99.90;;;;;;5051528;28;20372;-68
2022/09/27 13:25:42;;;;;;;;;;;16.10;99.90;;;;;;5041699;28;19917;-68
2022/09/27 13:28:30;;;;;;;;;;;15.90;99.90;;;;;;5036910;28;20256;-68
2022/09/27 13:31:03;;;;;;;;;;;15.80;99.90;;;;;;5045143;28;19916;-67
2022/09/27 13:33:48;;;;;;;;;;;15.80;99.90;;;;;;5033410;28;20205;-67
2022/09/27 13:36:18;;;;;;;;;;;15.80;99.90;;;;;;5021290;28;19909;-68
2022/09/27 13:39:00;;;;;;;;;;;15.80;99.90;;;;;;5037062;28;19917;-67
2022/09/27 13:41:27;;;;;;;;;;;15.90;99.90;;;;;;5038201;28;20017;-67
2022/09/27 13:43:56;;;;;;;;;;;16.10;99.90;;;;;;5036522;28;19969;-68
2022/09/27 13:46:23;;;;;;;;;;;16.60;99.90;;;;;;5040201;28;19921;-68
2022/09/27 13:48:51;;;;;;;;;;;17.10;99.90;;;;;;5042135;28;19927;-68
2022/09/27 13:51:20;;;;;;;;;;;17.80;99.90;;;;;;5051864;28;19917;-68
2022/09/27 13:53:57;;;;;;;;;;;18.20;99.90;;;;;;5038368;28;20284;-69
2022/09/27 13:56:45;;;;;;;;;;;18.20;99.90;;;;;;5035258;28;20454;-68
2022/09/27 13:59:12;;;;;;;;;;;18.10;99.70;;;;;;5039220;28;20252;-68
2022/09/27 14:02:13;;;;;;;;;;;18.20;99.90;;;;;;5040031;28;19924;-68
2022/09/27 14:04:45;;;;;;;;;;;18.00;98.80;;;;;;4976748;28;19922;-67
2022/09/27 14:07:13;;;;;;;;;;;17.90;99.90;;;;;;5018159;28;20052;-68
2022/09/27 14:09:39;;;;;;;;;;;18.10;99.90;;;;;;5039562;28;20184;-68
2022/09/27 14:12:10;;;;;;;;;;;18.00;99.90;;;;;;5024317;28;19917;-67
2022/09/27 14:14:36;;;;;;;;;;;17.80;99.90;;;;;;5003900;28;19921;-67
2022/09/27 14:17:06;;;;;;;;;;;17.50;99.90;;;;;;5041796;28;20366;-67
2022/09/27 14:19:32;;;;;;;;;;;17.40;99.90;;;;;;5032343;28;19921;-67
2022/09/27 14:21:57;;;;;;;;;;;17.10;99.90;;;;;;5033212;28;19924;-68
2022/09/27 14:24:23;;;;;;;;;;;16.90;99.90;;;;;;5037186;28;19917;-67
2022/09/27 14:26:50;;;;;;;;;;;16.70;99.90;;;;;;5020595;28;19924;-67
2022/09/27 14:29:19;;;;;;;;;;;16.40;99.90;;;;;;5044001;28;20000;-67
2022/09/27 14:31:48;;;;;;;;;;;16.20;99.90;;;;;;5041094;28;19913;-67
2022/09/27 14:34:14;;;;;;;;;;;16.20;99.90;;;;;;5040764;28;19917;-67
2022/09/27 14:39:31;;;;;;;;;;;16.00;99.90;;;;;;5052753;28;19955;-67
2022/09/27 14:41:59;;;;;;;;;;;16.10;99.90;;;;;;5044799;28;20020;-67
2022/09/27 14:44:25;;;;;;;;;;;16.60;99.90;;;;;;5035166;28;20292;-67